METAR Data
IDs: Format: Raw Decoded Include TAF

Data at: 2119 UTC 01 Dec 2021

KSTC 012053Z 22010KT 10SM CLR 10/03 A2954 RMK AO2 SLP018 T01000028 56031